createdAt,value
2023-05-06T00:05:03.324Z,9.77
2023-05-06T00:10:08.187Z,9.88
2023-05-06T00:15:11.774Z,10.75
2023-05-06T00:20:15.449Z,10.20
2023-05-06T00:25:19.987Z,10.23
2023-05-06T00:30:23.144Z,11.75
2023-05-06T00:35:25.906Z,10.97
2023-05-06T00:40:30.308Z,10.57
2023-05-06T00:45:33.197Z,11.50
2023-05-06T00:50:36.310Z,12.77
2023-05-06T00:55:41.021Z,11.63
2023-05-06T01:00:44.610Z,11.80
2023-05-06T01:05:54.371Z,11.82
2023-05-06T01:11:01.976Z,13.15
2023-05-06T01:16:06.226Z,12.45
2023-05-06T01:21:10.663Z,12.90
2023-05-06T01:26:14.848Z,13.80
2023-05-06T01:31:25.080Z,12.48
2023-05-06T01:36:30.692Z,13.52
2023-05-06T01:41:35.263Z,13.30
2023-05-06T01:46:38.553Z,13.07
2023-05-06T01:51:41.359Z,14.18
2023-05-06T01:56:45.527Z,15.50
2023-05-06T02:01:48.363Z,14.43
2023-05-06T02:06:51.228Z,13.85
2023-05-06T02:11:56.800Z,13.20
2023-05-06T02:17:04.594Z,14.38
2023-05-06T02:22:07.443Z,13.93
2023-05-06T02:27:11.581Z,14.17
2023-05-06T02:32:14.390Z,13.43
2023-05-06T02:37:17.738Z,14.02
2023-05-06T02:42:22.128Z,14.80
2023-05-06T02:47:24.985Z,14.80
2023-05-06T02:52:27.809Z,15.27
2023-05-06T02:57:32.100Z,14.17
2023-05-06T03:02:35.145Z,14.40
2023-05-06T03:07:39.155Z,14.10
2023-05-06T03:12:43.628Z,13.70
2023-05-06T03:17:48.082Z,13.77
2023-05-06T03:22:51.695Z,15.95
2023-05-06T03:27:57.392Z,14.07
2023-05-06T03:33:01.684Z,15.07
2023-05-06T03:38:07.717Z,14.77
2023-05-06T03:43:22.376Z,15.33
2023-05-06T03:48:29.129Z,15.65
2023-05-06T03:53:32.474Z,15.57
2023-05-06T03:58:36.854Z,14.27
2023-05-06T04:03:41.805Z,13.53
2023-05-06T04:08:44.950Z,15.32
2023-05-06T04:13:49.635Z,16.65
2023-05-06T04:18:56.464Z,14.60
2023-05-06T04:24:00.171Z,15.55
2023-05-06T04:29:10.978Z,14.90
2023-05-06T04:34:27.858Z,14.63
2023-05-06T04:39:33.004Z,16.15
2023-05-06T04:44:37.370Z,15.25
2023-05-06T04:49:44.070Z,15.85
2023-05-06T04:54:47.003Z,16.00
2023-05-06T04:59:51.754Z,16.50
2023-05-06T05:04:55.132Z,15.77
2023-05-06T05:09:58.864Z,19.20
2023-05-06T05:15:03.630Z,17.08
2023-05-06T05:20:08.278Z,17.30
2023-05-06T05:25:12.466Z,18.45
2023-05-06T05:30:17.294Z,21.70
2023-05-06T05:35:21.039Z,21.00
2023-05-06T05:40:24.918Z,22.70
2023-05-06T05:45:30.994Z,23.65
2023-05-06T05:50:34.735Z,23.23
2023-05-06T05:55:38.438Z,23.80
2023-05-06T06:00:43.061Z,26.27
2023-05-06T06:05:52.859Z,24.80
2023-05-06T06:10:56.244Z,25.90
2023-05-06T06:16:05.107Z,25.35
2023-05-06T06:21:09.843Z,24.87
2023-05-06T06:26:12.620Z,23.87
2023-05-06T06:31:16.915Z,22.80
2023-05-06T06:36:19.758Z,22.75
2023-05-06T06:41:22.543Z,22.67
2023-05-06T06:46:26.651Z,22.67
2023-05-06T06:51:29.408Z,25.40
2023-05-06T06:56:32.808Z,22.30
2023-05-06T07:01:37.145Z,19.25
2023-05-06T07:06:40.124Z,18.38
2023-05-06T07:11:43.030Z,15.15
2023-05-06T07:16:48.189Z,15.18
2023-05-06T07:21:53.021Z,13.25
2023-05-06T07:26:55.925Z,12.60
2023-05-06T07:32:00.178Z,13.80
2023-05-06T07:37:03.842Z,13.10
2023-05-06T07:42:07.516Z,12.35
2023-05-06T07:47:11.780Z,9.93
2023-05-06T07:52:14.827Z,8.85
2023-05-06T07:57:17.966Z,9.23
2023-05-06T08:02:22.369Z,10.17
2023-05-06T08:07:25.324Z,9.82
2023-05-06T08:12:28.189Z,8.77
2023-05-06T08:17:32.515Z,8.70
2023-05-06T08:22:35.475Z,9.40
2023-05-06T08:27:38.571Z,7.35
2023-05-06T08:32:42.842Z,7.07
2023-05-06T08:37:45.715Z,4.78
2023-05-06T08:42:49.650Z,5.32
2023-05-06T08:47:53.970Z,5.20
2023-05-06T08:52:56.856Z,5.40
2023-05-06T08:58:00.521Z,6.25
2023-05-06T09:03:04.968Z,6.55
2023-05-06T09:08:07.929Z,5.55
2023-05-06T09:13:12.385Z,4.95
2023-05-06T09:18:17.346Z,5.47
2023-05-06T09:23:20.190Z,5.13
2023-05-06T09:28:22.932Z,6.13
2023-05-06T09:33:28.342Z,5.10
2023-05-06T09:38:32.543Z,5.37
2023-05-06T09:43:36.363Z,6.10
2023-05-06T09:48:40.868Z,4.30
2023-05-06T09:53:45.679Z,4.53
2023-05-06T09:58:48.515Z,4.65
2023-05-06T10:03:54.426Z,4.22
2023-05-06T10:08:58.269Z,4.82
2023-05-06T10:14:01.425Z,4.45
2023-05-06T10:19:07.954Z,4.35
2023-05-06T10:24:12.897Z,4.53
2023-05-06T10:29:15.758Z,5.28
2023-05-06T10:34:21.576Z,5.97
2023-05-06T10:39:25.107Z,7.03
2023-05-06T10:45:00.240Z,6.57
2023-05-06T10:50:23.991Z,7.22
2023-05-06T10:55:28.908Z,6.45
2023-05-06T11:00:32.714Z,5.65
2023-05-06T11:05:47.945Z,5.50
2023-05-06T11:10:50.995Z,5.88
2023-05-06T11:15:54.269Z,6.85
2023-05-06T11:21:36.354Z,6.93
2023-05-06T11:26:41.965Z,6.03
2023-05-06T11:31:45.373Z,5.03
2023-05-06T11:37:02.250Z,3.90
2023-05-06T11:42:06.949Z,4.28
2023-05-06T11:47:10.007Z,4.30
2023-05-06T11:52:14.290Z,5.05
2023-05-06T11:57:17.356Z,6.35
2023-05-06T12:02:20.597Z,9.13
2023-05-06T12:07:25.026Z,8.93
2023-05-06T12:12:28.060Z,7.50
2023-05-06T12:17:31.081Z,9.23
2023-05-06T12:22:35.284Z,10.27
2023-05-06T12:27:39.590Z,9.93
2023-05-06T12:32:58.115Z,9.98
2023-05-06T12:38:10.842Z,8.05
2023-05-06T12:43:13.734Z,11.17
2023-05-06T12:48:17.324Z,10.95
2023-05-06T12:53:34.223Z,11.57
2023-05-06T12:58:37.765Z,11.30
2023-05-06T13:03:41.171Z,13.20
2023-05-06T13:08:45.489Z,12.80
2023-05-06T13:13:48.306Z,13.02
2023-05-06T13:18:51.154Z,11.23
2023-05-06T13:23:55.330Z,11.93
2023-05-06T13:28:58.172Z,11.27
2023-05-06T13:34:01.084Z,11.67
2023-05-06T13:39:05.499Z,11.15
2023-05-06T13:44:08.555Z,11.60
2023-05-06T13:49:11.532Z,10.40
2023-05-06T13:54:15.824Z,11.50
2023-05-06T13:59:18.661Z,10.70
2023-05-06T14:04:21.941Z,11.20
2023-05-06T14:09:26.735Z,11.23
2023-05-06T14:14:29.914Z,11.45
2023-05-06T14:19:32.772Z,14.33
2023-05-06T14:24:37.053Z,17.00
2023-05-06T14:29:43.200Z,20.30
2023-05-06T14:34:46.141Z,20.88
2023-05-06T14:39:50.817Z,21.67
2023-05-06T14:44:54.187Z,21.42
2023-05-06T14:49:57.206Z,26.98
2023-05-06T14:55:01.480Z,27.55
2023-05-06T15:00:09.922Z,30.55
2023-05-06T15:05:13.486Z,29.73
2023-05-06T15:10:18.262Z,32.10
2023-05-06T15:15:21.461Z,32.00
2023-05-06T15:20:24.277Z,31.33
2023-05-06T15:25:35.012Z,28.67
2023-05-06T15:30:38.886Z,28.58
2023-05-06T15:35:41.722Z,30.02
2023-05-06T15:40:50.825Z,29.17
2023-05-06T15:45:53.697Z,27.60
2023-05-06T15:50:56.522Z,27.15
2023-05-06T15:56:13.235Z,27.27
2023-05-06T16:01:23.764Z,32.35
2023-05-06T16:06:32.757Z,37.20
2023-05-06T16:11:36.986Z,41.03
2023-05-06T16:16:39.839Z,40.25
2023-05-06T16:21:42.660Z,35.72
2023-05-06T16:26:47.148Z,46.97
2023-05-06T16:31:50.273Z,55.25
2023-05-06T16:36:54.018Z,60.97
2023-05-06T16:41:58.213Z,67.97
2023-05-06T16:47:01.173Z,85.03
2023-05-06T16:52:04.312Z,69.90
2023-05-06T16:57:08.527Z,66.28
2023-05-06T17:02:11.426Z,59.83
2023-05-06T17:07:14.304Z,76.38
2023-05-06T17:12:20.515Z,73.18
2023-05-06T17:17:27.468Z,70.53
2023-05-06T17:22:30.389Z,64.45
2023-05-06T17:27:36.523Z,53.33
2023-05-06T17:32:39.515Z,58.40
2023-05-06T17:37:42.613Z,57.40
2023-05-06T17:42:46.932Z,59.28
2023-05-06T17:47:50.918Z,50.03
2023-05-06T17:52:54.615Z,50.77
2023-05-06T17:57:59.584Z,52.63
2023-05-06T18:03:03.217Z,50.08
2023-05-06T18:08:06.718Z,47.13
2023-05-06T18:13:11.377Z,48.15
2023-05-06T18:18:14.228Z,46.58
2023-05-06T18:23:17.136Z,49.22
2023-05-06T18:28:21.409Z,49.75
2023-05-06T18:33:24.364Z,53.58
2023-05-06T18:38:27.301Z,45.83
2023-05-06T18:43:32.043Z,42.83
2023-05-06T18:48:34.941Z,39.30
2023-05-06T18:53:37.887Z,42.53
2023-05-06T18:58:42.250Z,39.10
2023-05-06T19:03:45.243Z,28.20
2023-05-06T19:08:48.060Z,22.13
2023-05-06T19:13:52.701Z,23.63
2023-05-06T19:18:55.642Z,20.17
2023-05-06T19:23:59.793Z,24.63
2023-05-06T19:29:04.023Z,27.65
2023-05-06T19:34:06.901Z,29.60
2023-05-06T19:39:09.905Z,32.30
2023-05-06T19:44:14.151Z,37.17
2023-05-06T19:49:16.974Z,41.75
2023-05-06T19:54:19.951Z,45.67
2023-05-06T19:59:24.170Z,49.90
2023-05-06T20:04:27.108Z,45.22
2023-05-06T20:09:29.950Z,46.08
2023-05-06T20:14:34.352Z,43.83
2023-05-06T20:19:37.252Z,46.25
2023-05-06T20:24:41.904Z,48.17
2023-05-06T20:29:46.110Z,44.75
2023-05-06T20:34:50.201Z,48.45
2023-05-06T20:39:52.943Z,53.30
2023-05-06T20:44:57.045Z,51.95
2023-05-06T20:49:59.820Z,52.08
2023-05-06T20:55:03.237Z,51.40
2023-05-06T21:00:11.258Z,51.17
2023-05-06T21:05:14.499Z,50.40
2023-05-06T21:10:17.432Z,53.65
2023-05-06T21:15:21.625Z,55.57
2023-05-06T21:20:24.473Z,60.17
2023-05-06T21:25:27.541Z,57.10
2023-05-06T21:30:31.795Z,62.72
2023-05-06T21:35:34.912Z,68.10
2023-05-06T21:40:37.735Z,75.32
2023-05-06T21:45:41.906Z,86.10
2023-05-06T21:50:44.743Z,84.27
2023-05-06T21:55:47.538Z,96.20
2023-05-06T22:00:52.331Z,96.35
2023-05-06T22:05:55.209Z,99.88
2023-05-06T22:10:58.051Z,98.93
2023-05-06T22:16:02.397Z,91.60
2023-05-06T22:21:05.918Z,102.57
2023-05-06T22:26:08.694Z,94.87
2023-05-06T22:31:13.946Z,95.20
2023-05-06T22:36:16.875Z,96.30
2023-05-06T22:41:19.740Z,90.82
2023-05-06T22:46:24.041Z,92.73
2023-05-06T22:51:26.919Z,92.80
2023-05-06T22:56:29.722Z,85.57
2023-05-06T23:01:33.926Z,89.50
2023-05-06T23:06:36.824Z,88.35
2023-05-06T23:11:39.644Z,91.50
2023-05-06T23:16:43.855Z,96.63
2023-05-06T23:21:46.652Z,95.57
2023-05-06T23:26:49.444Z,99.32
2023-05-06T23:31:53.643Z,92.70
2023-05-06T23:36:56.593Z,93.68
2023-05-06T23:42:00.665Z,100.55
2023-05-06T23:47:04.846Z,96.97
2023-05-06T23:52:07.688Z,99.30
2023-05-06T23:57:10.534Z,95.78
